createdAt,value
2017-11-08T00:00:15.931Z,47.50
2017-11-08T00:02:43.514Z,45.53
2017-11-08T00:05:11.091Z,45.33
2017-11-08T00:07:38.666Z,49.87
2017-11-08T00:10:06.253Z,42.60
2017-11-08T00:12:33.835Z,47.97
2017-11-08T00:15:01.410Z,49.43
2017-11-08T00:17:28.977Z,44.80
2017-11-08T00:19:58.351Z,48.90
2017-11-08T00:22:25.965Z,47.80
2017-11-08T00:24:53.539Z,48.47
2017-11-08T00:27:21.110Z,50.33
2017-11-08T00:29:48.682Z,47.73
2017-11-08T00:32:16.266Z,41.27
2017-11-08T00:34:43.833Z,41.57
2017-11-08T00:37:11.402Z,37.83
2017-11-08T00:39:39.006Z,44.60
2017-11-08T00:42:06.578Z,46.07
2017-11-08T00:44:34.153Z,45.63
2017-11-08T00:47:01.765Z,43.87
2017-11-08T00:49:29.334Z,47.70
2017-11-08T00:51:56.947Z,42.17
2017-11-08T00:54:24.519Z,43.90
2017-11-08T00:56:52.090Z,43.30
2017-11-08T00:59:19.995Z,45.17
2017-11-08T01:01:47.562Z,48.70
2017-11-08T01:04:15.146Z,52.10
2017-11-08T01:06:42.728Z,44.00
2017-11-08T01:09:10.342Z,42.37
2017-11-08T01:11:38.006Z,39.73
2017-11-08T01:14:05.582Z,42.30
2017-11-08T01:16:33.167Z,44.33
2017-11-08T01:19:00.747Z,46.33
2017-11-08T01:21:28.327Z,58.47
2017-11-08T01:23:55.894Z,49.03
2017-11-08T01:26:23.498Z,46.33
2017-11-08T01:28:51.106Z,46.70
2017-11-08T01:31:18.690Z,50.20
2017-11-08T01:33:46.516Z,49.47
2017-11-08T01:36:14.089Z,45.03
2017-11-08T01:38:42.637Z,50.60
2017-11-08T01:41:15.793Z,46.77
2017-11-08T01:43:43.396Z,56.10
2017-11-08T01:46:10.983Z,51.60
2017-11-08T01:48:38.590Z,56.30
2017-11-08T01:51:06.166Z,50.70
2017-11-08T01:53:33.747Z,58.30
2017-11-08T01:56:01.323Z,46.70
2017-11-08T01:58:28.897Z,51.77
2017-11-08T02:00:56.477Z,42.57
2017-11-08T02:03:24.047Z,47.73
2017-11-08T02:05:51.655Z,50.80
2017-11-08T02:08:19.231Z,49.97
2017-11-08T02:10:46.804Z,48.63
2017-11-08T02:13:14.381Z,45.23
2017-11-08T02:15:41.955Z,45.37
2017-11-08T02:18:15.282Z,49.00
2017-11-08T02:20:42.858Z,45.97
2017-11-08T02:23:10.435Z,50.87
2017-11-08T02:25:38.223Z,51.70
2017-11-08T02:28:05.831Z,44.17
2017-11-08T02:30:33.411Z,52.90
2017-11-08T02:33:00.986Z,52.50
2017-11-08T02:35:28.585Z,49.50
2017-11-08T02:37:56.155Z,46.40
2017-11-08T02:40:23.734Z,41.07
2017-11-08T02:42:51.315Z,48.53
2017-11-08T02:45:18.890Z,48.73
2017-11-08T02:47:46.465Z,44.27
2017-11-08T02:50:14.034Z,48.73
2017-11-08T02:52:41.610Z,43.20
2017-11-08T02:55:14.192Z,44.53
2017-11-08T02:57:41.774Z,43.70
2017-11-08T03:00:09.347Z,44.40
2017-11-08T03:02:52.139Z,40.63
2017-11-08T03:05:20.621Z,52.07
2017-11-08T03:07:48.191Z,50.53
2017-11-08T03:10:15.812Z,57.07
2017-11-08T03:12:43.381Z,49.70
2017-11-08T03:15:10.946Z,44.70
2017-11-08T03:17:38.609Z,49.40
2017-11-08T03:20:06.199Z,43.77
2017-11-08T03:22:33.811Z,53.57
2017-11-08T03:25:01.384Z,48.97
2017-11-08T03:27:28.995Z,43.87
2017-11-08T03:29:56.578Z,46.40
2017-11-08T03:32:24.185Z,43.90
2017-11-08T03:34:51.793Z,41.83
2017-11-08T03:37:19.378Z,42.43
2017-11-08T03:39:47.003Z,43.17
2017-11-08T03:42:14.579Z,45.97
2017-11-08T03:44:42.154Z,48.07
2017-11-08T03:47:09.778Z,43.53
2017-11-08T03:49:37.685Z,46.83
2017-11-08T03:52:05.254Z,46.70
2017-11-08T03:54:33.146Z,40.73
2017-11-08T03:57:00.775Z,41.70
2017-11-08T03:59:28.370Z,41.47
2017-11-08T04:01:55.970Z,40.30
2017-11-08T04:04:23.543Z,44.47
2017-11-08T04:06:51.162Z,46.67
2017-11-08T04:09:18.726Z,47.60
2017-11-08T04:11:46.301Z,50.27
2017-11-08T04:14:13.881Z,47.47
2017-11-08T04:16:41.484Z,49.50
2017-11-08T04:19:09.063Z,49.83
2017-11-08T04:21:36.669Z,51.47
2017-11-08T04:24:04.237Z,51.87
2017-11-08T04:26:31.846Z,54.10
2017-11-08T04:28:59.434Z,54.13
2017-11-08T04:31:27.005Z,51.30
2017-11-08T04:33:54.578Z,53.53
2017-11-08T04:36:22.152Z,51.57
2017-11-08T04:38:50.103Z,51.70
2017-11-08T04:41:17.671Z,59.27
2017-11-08T04:43:45.240Z,48.77
2017-11-08T04:46:12.806Z,55.23
2017-11-08T04:48:40.384Z,49.33
2017-11-08T04:51:07.953Z,50.90
2017-11-08T04:53:35.533Z,48.10
2017-11-08T04:56:03.142Z,48.50
2017-11-08T04:58:30.713Z,49.63
2017-11-08T05:00:58.294Z,58.10
2017-11-08T05:03:25.905Z,48.20
2017-11-08T05:05:53.507Z,57.60
2017-11-08T05:08:21.086Z,56.83
2017-11-08T05:10:48.655Z,51.50
2017-11-08T05:13:16.223Z,50.40
2017-11-08T05:15:43.799Z,57.50
2017-11-08T05:18:11.379Z,49.53
2017-11-08T05:20:38.986Z,50.20
2017-11-08T05:23:06.560Z,53.60
2017-11-08T05:25:34.131Z,49.23
2017-11-08T05:28:01.701Z,50.13
2017-11-08T05:30:29.270Z,51.20
2017-11-08T05:32:56.877Z,50.40
2017-11-08T05:35:24.446Z,50.10
2017-11-08T05:37:52.013Z,47.67
2017-11-08T05:40:20.230Z,47.43
2017-11-08T05:42:47.806Z,49.43
2017-11-08T05:45:15.430Z,50.20
2017-11-08T05:47:43.005Z,47.43
2017-11-08T05:50:10.579Z,48.20
2017-11-08T05:52:38.310Z,49.00
2017-11-08T05:55:05.918Z,45.30
2017-11-08T05:57:33.486Z,44.13
2017-11-08T06:00:01.089Z,42.30
2017-11-08T06:02:28.663Z,47.13
2017-11-08T06:04:56.230Z,46.20
2017-11-08T06:07:23.817Z,43.13
2017-11-08T06:09:51.392Z,46.83
2017-11-08T06:12:18.966Z,45.80
2017-11-08T06:14:46.544Z,39.70
2017-11-08T06:17:14.150Z,45.10
2017-11-08T06:19:41.773Z,46.63
2017-11-08T06:22:09.341Z,43.63
2017-11-08T06:24:36.951Z,43.93
2017-11-08T06:27:04.517Z,44.47
2017-11-08T06:29:32.093Z,43.90
2017-11-08T06:31:59.681Z,42.93
2017-11-08T06:34:27.274Z,42.50
2017-11-08T06:36:54.940Z,44.07
2017-11-08T06:39:22.519Z,45.70
2017-11-08T06:41:50.089Z,41.00
2017-11-08T06:44:17.694Z,45.33
2017-11-08T06:46:45.301Z,42.10
2017-11-08T06:49:12.880Z,41.77
2017-11-08T06:51:40.460Z,43.40
2017-11-08T06:54:08.034Z,40.90
2017-11-08T06:56:35.606Z,40.97
2017-11-08T06:59:03.908Z,39.33
2017-11-08T07:01:31.503Z,39.43
2017-11-08T07:04:02.185Z,44.07
2017-11-08T07:06:29.793Z,41.37
2017-11-08T07:08:57.390Z,43.27
2017-11-08T07:11:24.967Z,41.77
2017-11-08T07:13:52.594Z,40.93
2017-11-08T07:16:20.178Z,41.43
2017-11-08T07:18:47.750Z,40.73
2017-11-08T07:21:15.325Z,41.07
2017-11-08T07:23:42.898Z,41.23
2017-11-08T07:26:10.474Z,39.70
2017-11-08T07:28:38.046Z,39.17
2017-11-08T07:31:05.613Z,42.60
2017-11-08T07:33:33.180Z,38.90
2017-11-08T07:36:00.798Z,38.17
2017-11-08T07:38:28.379Z,37.57
2017-11-08T07:40:55.938Z,40.23
2017-11-08T07:43:23.511Z,39.20
2017-11-08T07:45:51.078Z,37.90
2017-11-08T07:48:18.642Z,36.70
2017-11-08T07:50:46.206Z,37.00
2017-11-08T07:53:13.811Z,36.67
2017-11-08T07:55:46.336Z,31.73
2017-11-08T07:58:13.936Z,35.00
2017-11-08T08:00:41.511Z,34.00
2017-11-08T08:03:09.105Z,33.20
2017-11-08T08:05:36.672Z,35.40
2017-11-08T08:08:04.238Z,29.10
2017-11-08T08:10:34.774Z,29.33
2017-11-08T08:13:04.131Z,32.73
2017-11-08T08:15:31.700Z,32.00
2017-11-08T08:17:59.274Z,29.23
2017-11-08T08:20:26.886Z,34.77
2017-11-08T08:22:54.447Z,31.83
2017-11-08T08:25:22.014Z,28.60
2017-11-08T08:27:50.509Z,28.93
2017-11-08T08:30:18.115Z,33.37
2017-11-08T08:32:45.690Z,29.33
2017-11-08T08:35:13.258Z,27.20
2017-11-08T08:37:40.833Z,29.13
2017-11-08T08:40:08.394Z,28.90
2017-11-08T08:42:35.955Z,29.70
2017-11-08T08:45:03.523Z,29.40
2017-11-08T08:47:31.091Z,27.50
2017-11-08T08:49:58.710Z,28.33
2017-11-08T08:52:26.275Z,26.83
2017-11-08T08:54:53.842Z,28.67
2017-11-08T08:57:21.415Z,27.27
2017-11-08T08:59:49.007Z,33.00
2017-11-08T09:02:19.407Z,29.00
2017-11-08T09:04:47.018Z,27.57
2017-11-08T09:07:14.594Z,26.60
2017-11-08T09:09:42.167Z,30.73
2017-11-08T09:12:09.736Z,29.00
2017-11-08T09:14:37.309Z,24.30
2017-11-08T09:17:04.873Z,25.00
2017-11-08T09:19:33.359Z,30.00
2017-11-08T09:22:00.934Z,29.83
2017-11-08T09:24:35.073Z,29.33
2017-11-08T09:27:04.434Z,29.47
2017-11-08T09:29:34.801Z,30.50
2017-11-08T09:32:02.377Z,29.80
2017-11-08T09:34:29.983Z,31.33
2017-11-08T09:36:57.549Z,30.53
2017-11-08T09:39:25.145Z,31.23
2017-11-08T09:41:55.302Z,31.70
2017-11-08T09:44:22.874Z,30.30
2017-11-08T09:46:50.451Z,31.70
2017-11-08T09:49:18.073Z,28.70
2017-11-08T09:51:45.691Z,32.60
2017-11-08T09:54:13.254Z,33.83
2017-11-08T09:56:40.814Z,32.13
2017-11-08T09:59:08.416Z,28.93
2017-11-08T10:01:41.823Z,30.70
2017-11-08T10:04:09.468Z,29.77
2017-11-08T10:06:39.962Z,29.90
2017-11-08T10:09:07.650Z,29.63
2017-11-08T10:11:39.130Z,32.00
2017-11-08T10:14:06.708Z,31.27
2017-11-08T10:16:34.290Z,30.60
2017-11-08T10:19:02.786Z,29.97
2017-11-08T10:21:30.349Z,30.17
2017-11-08T10:23:57.933Z,29.00
2017-11-08T10:26:25.703Z,27.40
2017-11-08T10:28:53.338Z,28.50
2017-11-08T10:31:20.899Z,26.27
2017-11-08T10:33:48.599Z,27.43
2017-11-08T10:36:16.173Z,26.73
2017-11-08T10:38:43.858Z,27.23
2017-11-08T10:41:11.438Z,29.40
2017-11-08T10:43:38.979Z,25.37
2017-11-08T10:46:06.552Z,27.90
2017-11-08T10:48:34.125Z,27.30
2017-11-08T10:51:01.699Z,26.20
2017-11-08T10:53:30.318Z,26.70
2017-11-08T10:55:57.886Z,28.00
2017-11-08T10:58:25.464Z,26.50
2017-11-08T11:00:53.064Z,27.13
2017-11-08T11:03:26.693Z,26.13
2017-11-08T11:05:54.307Z,28.57
2017-11-08T11:08:21.927Z,28.63
2017-11-08T11:10:49.499Z,29.00
2017-11-08T11:13:17.167Z,27.67
2017-11-08T11:15:44.792Z,25.27
2017-11-08T11:18:12.362Z,26.30
2017-11-08T11:20:40.891Z,30.00
2017-11-08T11:23:08.463Z,28.10
2017-11-08T11:25:37.975Z,29.60
2017-11-08T11:28:05.557Z,28.80
2017-11-08T11:30:34.020Z,26.60
2017-11-08T11:33:01.616Z,26.37
2017-11-08T11:35:29.192Z,27.43
2017-11-08T11:37:56.759Z,29.60
2017-11-08T11:40:24.332Z,29.43
2017-11-08T11:42:51.910Z,28.53
2017-11-08T11:45:19.542Z,28.57
2017-11-08T11:47:49.492Z,28.50
2017-11-08T11:50:17.058Z,28.83
2017-11-08T11:52:44.645Z,28.10
2017-11-08T11:55:12.221Z,27.00
2017-11-08T11:57:39.847Z,25.73
2017-11-08T12:00:07.412Z,27.53
2017-11-08T12:02:34.998Z,30.47
2017-11-08T12:05:03.564Z,30.17
2017-11-08T12:07:33.498Z,28.23
2017-11-08T12:10:03.035Z,29.97
2017-11-08T12:12:30.697Z,28.43
2017-11-08T12:14:58.279Z,31.23
2017-11-08T12:17:25.858Z,32.67
2017-11-08T12:19:53.476Z,30.00
2017-11-08T12:22:21.060Z,28.93
2017-11-08T12:24:49.062Z,29.50
2017-11-08T12:27:20.454Z,29.77
2017-11-08T12:29:48.031Z,30.53
2017-11-08T12:32:15.603Z,30.30
2017-11-08T12:34:43.180Z,28.60
2017-11-08T12:37:10.783Z,27.00
2017-11-08T12:39:38.359Z,28.63
2017-11-08T12:42:11.491Z,29.80
2017-11-08T12:44:44.682Z,29.50
2017-11-08T12:47:12.265Z,28.00
2017-11-08T12:49:39.847Z,29.83
2017-11-08T12:52:07.435Z,31.80
2017-11-08T12:54:35.052Z,30.30
2017-11-08T12:57:02.701Z,30.90
2017-11-08T12:59:30.374Z,31.40
2017-11-08T13:01:57.995Z,31.80
2017-11-08T13:04:25.679Z,31.80
2017-11-08T13:06:53.539Z,33.43
2017-11-08T13:09:21.139Z,33.07
2017-11-08T13:11:48.804Z,33.43
2017-11-08T13:14:16.399Z,30.57
2017-11-08T13:16:43.970Z,33.07
2017-11-08T13:19:11.541Z,29.30
2017-11-08T13:21:39.139Z,32.17
2017-11-08T13:24:06.708Z,30.53
2017-11-08T13:26:34.320Z,32.40
2017-11-08T13:29:01.907Z,33.20
2017-11-08T13:31:29.492Z,30.63
2017-11-08T13:33:57.092Z,33.40
2017-11-08T13:36:24.805Z,30.80
2017-11-08T13:38:56.069Z,29.70
2017-11-08T13:41:23.842Z,30.80
2017-11-08T13:43:51.446Z,31.67
2017-11-08T13:46:19.151Z,32.03
2017-11-08T13:48:46.836Z,31.80
2017-11-08T13:51:15.478Z,30.60
2017-11-08T13:53:45.080Z,29.47
2017-11-08T13:56:13.839Z,31.47
2017-11-08T13:58:41.441Z,31.83
2017-11-08T14:01:09.287Z,32.57
2017-11-08T14:03:37.259Z,31.70
2017-11-08T14:06:04.844Z,32.03
2017-11-08T14:08:32.455Z,31.70
2017-11-08T14:11:00.030Z,33.97
2017-11-08T14:13:27.603Z,34.07
2017-11-08T14:15:55.179Z,33.03
2017-11-08T14:18:22.752Z,32.00
2017-11-08T14:20:50.448Z,32.63
2017-11-08T14:23:18.047Z,30.40
2017-11-08T14:25:45.623Z,30.50
2017-11-08T14:28:13.199Z,34.17
2017-11-08T14:30:40.814Z,32.47
2017-11-08T14:33:08.388Z,29.57
2017-11-08T14:35:38.959Z,33.07
2017-11-08T14:38:06.532Z,36.40
2017-11-08T14:40:34.101Z,33.73
2017-11-08T14:43:01.907Z,35.60
2017-11-08T14:45:29.483Z,33.47
2017-11-08T14:47:57.055Z,34.70
2017-11-08T14:50:24.667Z,32.20
2017-11-08T14:55:51.227Z,33.70
2017-11-08T14:58:18.795Z,31.37
2017-11-08T15:00:46.367Z,32.93
2017-11-08T15:03:13.966Z,34.47
2017-11-08T15:05:41.531Z,33.47
2017-11-08T15:08:09.151Z,31.33
2017-11-08T15:10:36.744Z,33.63
2017-11-08T15:13:04.315Z,33.07
2017-11-08T15:15:31.893Z,34.47
2017-11-08T15:17:59.463Z,33.87
2017-11-08T15:20:28.870Z,35.27
2017-11-08T15:22:56.453Z,32.77
2017-11-08T15:25:24.101Z,30.70
2017-11-08T15:27:51.691Z,33.20
2017-11-08T15:30:24.863Z,33.77
2017-11-08T15:32:52.431Z,33.50
2017-11-08T15:35:20.003Z,35.77
2017-11-08T15:37:47.667Z,32.67
2017-11-08T15:40:33.072Z,33.30
2017-11-08T15:43:00.746Z,32.53
2017-11-08T15:45:28.348Z,34.70
2017-11-08T15:47:55.954Z,35.57
2017-11-08T15:50:23.522Z,33.80
2017-11-08T15:52:51.407Z,33.97
2017-11-08T15:55:19.022Z,35.53
2017-11-08T15:57:46.588Z,36.13
2017-11-08T16:00:14.246Z,36.03
2017-11-08T16:02:43.719Z,36.97
2017-11-08T16:05:11.293Z,35.13
2017-11-08T16:07:38.858Z,35.83
2017-11-08T16:10:06.475Z,35.30
2017-11-08T16:12:34.299Z,37.33
2017-11-08T16:15:02.940Z,33.53
2017-11-08T16:17:33.495Z,37.23
2017-11-08T16:20:01.309Z,35.50
2017-11-08T16:22:28.879Z,35.13
2017-11-08T16:24:56.453Z,34.87
2017-11-08T16:27:24.067Z,35.40
2017-11-08T16:29:51.638Z,35.20
2017-11-08T16:32:20.032Z,37.57
2017-11-08T16:35:02.547Z,34.77
2017-11-08T16:37:30.160Z,36.83
2017-11-08T16:39:57.800Z,35.80
2017-11-08T16:42:25.500Z,35.27
2017-11-08T16:44:53.340Z,35.23
2017-11-08T16:47:21.044Z,36.10
2017-11-08T16:49:48.623Z,36.53
2017-11-08T16:52:16.517Z,38.40
2017-11-08T16:54:44.088Z,38.17
2017-11-08T16:57:11.697Z,34.33
2017-11-08T16:59:39.304Z,37.37
2017-11-08T17:02:06.895Z,35.97
2017-11-08T17:04:34.515Z,34.70
2017-11-08T17:07:02.087Z,35.63
2017-11-08T17:09:29.885Z,36.93
2017-11-08T17:11:57.475Z,36.03
2017-11-08T17:14:25.055Z,33.73
2017-11-08T17:16:52.655Z,36.37
2017-11-08T17:19:20.229Z,36.63
2017-11-08T17:21:47.848Z,36.40
2017-11-08T17:24:15.436Z,37.73
2017-11-08T17:26:43.048Z,36.67
2017-11-08T17:29:14.579Z,35.80
2017-11-08T17:31:43.244Z,36.73
2017-11-08T17:34:10.864Z,36.13
2017-11-08T17:36:38.438Z,32.47
2017-11-08T17:39:06.058Z,42.60
2017-11-08T17:41:36.952Z,35.77
2017-11-08T17:44:18.827Z,37.20
2017-11-08T17:46:46.593Z,34.67
2017-11-08T17:49:14.208Z,37.00
2017-11-08T17:51:41.780Z,34.33
2017-11-08T17:54:09.350Z,37.30
2017-11-08T17:56:37.178Z,33.77
2017-11-08T17:59:04.757Z,36.60
2017-11-08T18:01:32.371Z,36.30
2017-11-08T18:03:59.938Z,35.23
2017-11-08T18:06:27.503Z,32.33
2017-11-08T18:08:55.087Z,32.80
2017-11-08T18:11:22.651Z,34.87
2017-11-08T18:13:50.229Z,34.30
2017-11-08T18:16:17.908Z,33.57
2017-11-08T18:18:45.571Z,37.17
2017-11-08T18:21:13.142Z,33.40
2017-11-08T18:23:40.761Z,36.73
2017-11-08T18:26:09.454Z,38.30
2017-11-08T18:28:37.770Z,37.07
2017-11-08T18:31:05.343Z,36.20
2017-11-08T18:33:33.839Z,36.37
2017-11-08T18:36:01.411Z,35.93
2017-11-08T18:38:29.037Z,34.90
2017-11-08T18:40:56.647Z,33.70
2017-11-08T18:43:24.259Z,38.27
2017-11-08T18:45:51.827Z,33.97
2017-11-08T18:48:19.398Z,36.77
2017-11-08T18:50:46.972Z,38.87
2017-11-08T18:53:14.559Z,36.87
2017-11-08T18:55:42.136Z,37.20
2017-11-08T18:58:10.479Z,38.87
2017-11-08T19:00:38.053Z,39.10
2017-11-08T19:03:05.677Z,39.43
2017-11-08T19:05:33.259Z,37.13
2017-11-08T19:08:00.940Z,39.83
2017-11-08T19:10:28.519Z,39.23
2017-11-08T19:12:56.175Z,39.03
2017-11-08T19:15:23.751Z,35.03
2017-11-08T19:17:51.334Z,36.87
2017-11-08T19:20:18.960Z,36.87
2017-11-08T19:22:46.531Z,39.57
2017-11-08T19:25:14.104Z,39.80
2017-11-08T19:27:41.761Z,38.90
2017-11-08T19:30:09.335Z,36.70
2017-11-08T19:32:37.734Z,36.57
2017-11-08T19:35:05.393Z,35.43
2017-11-08T19:37:32.959Z,36.60
2017-11-08T19:40:00.538Z,37.17
2017-11-08T19:42:28.114Z,37.00
2017-11-08T19:44:55.792Z,37.57
2017-11-08T19:47:23.407Z,36.20
2017-11-08T19:49:51.057Z,35.87
2017-11-08T19:52:18.679Z,35.70
2017-11-08T19:54:46.288Z,37.20
2017-11-08T19:57:13.902Z,36.93
2017-11-08T19:59:41.509Z,36.90
2017-11-08T20:02:09.250Z,35.13
2017-11-08T20:04:36.819Z,36.20
2017-11-08T20:07:04.443Z,36.73
2017-11-08T20:09:32.272Z,39.70
2017-11-08T20:11:59.873Z,34.73
2017-11-08T20:14:27.482Z,37.90
2017-11-08T20:16:55.056Z,37.53
2017-11-08T20:19:22.696Z,37.73
2017-11-08T20:21:50.300Z,37.93
2017-11-08T20:24:17.892Z,35.00
2017-11-08T20:26:45.550Z,37.73
2017-11-08T20:29:13.213Z,36.47
2017-11-08T20:31:40.833Z,36.90
2017-11-08T20:34:08.441Z,37.67
2017-11-08T20:36:36.007Z,37.33
2017-11-08T20:39:04.246Z,37.50
2017-11-08T20:41:32.560Z,40.70
2017-11-08T20:44:00.284Z,38.77
2017-11-08T20:46:27.876Z,38.37
2017-11-08T20:48:55.442Z,36.33
2017-11-08T20:51:23.398Z,38.93
2017-11-08T20:53:50.960Z,38.40
2017-11-08T20:56:18.576Z,37.70
2017-11-08T20:58:46.185Z,39.23
2017-11-08T21:01:13.751Z,39.50
2017-11-08T21:03:41.326Z,36.50
2017-11-08T21:06:08.899Z,38.50
2017-11-08T21:08:36.999Z,36.20
2017-11-08T21:11:04.581Z,42.60
2017-11-08T21:13:32.196Z,35.57
2017-11-08T21:15:59.791Z,37.43
2017-11-08T21:18:27.354Z,38.30
2017-11-08T21:20:54.992Z,38.03
2017-11-08T21:23:22.570Z,38.70
2017-11-08T21:25:50.176Z,38.40
2017-11-08T21:28:17.741Z,38.80
2017-11-08T21:30:45.316Z,40.03
2017-11-08T21:33:12.928Z,39.13
2017-11-08T21:35:40.516Z,38.37
2017-11-08T21:38:08.087Z,38.97
2017-11-08T21:40:35.659Z,40.80
2017-11-08T21:43:03.227Z,37.60
2017-11-08T21:45:30.803Z,41.20
2017-11-08T21:47:58.402Z,36.60
2017-11-08T21:50:26.405Z,38.90
2017-11-08T21:52:54.199Z,37.70
2017-11-08T21:55:21.803Z,44.80
2017-11-08T21:57:49.364Z,40.77
2017-11-08T22:00:16.944Z,39.10
2017-11-08T22:02:44.564Z,38.37
2017-11-08T22:05:12.143Z,41.70
2017-11-08T22:07:39.733Z,43.23
2017-11-08T22:10:07.615Z,41.27
2017-11-08T22:12:35.249Z,42.60
2017-11-08T22:15:02.834Z,41.53
2017-11-08T22:17:30.403Z,39.43
2017-11-08T22:19:57.975Z,39.27
2017-11-08T22:22:26.383Z,41.63
2017-11-08T22:24:53.995Z,36.37
2017-11-08T22:27:21.560Z,40.73
2017-11-08T22:29:49.124Z,38.57
2017-11-08T22:32:16.695Z,39.90
2017-11-08T22:34:44.327Z,39.47
2017-11-08T22:37:11.930Z,37.53
2017-11-08T22:39:39.556Z,39.60
2017-11-08T22:42:07.122Z,35.93
2017-11-08T22:44:34.689Z,36.40
2017-11-08T22:47:02.345Z,38.50
2017-11-08T22:49:30.072Z,33.50
2017-11-08T22:51:57.731Z,36.87
2017-11-08T22:54:25.302Z,35.47
2017-11-08T22:56:52.917Z,39.60
2017-11-08T22:59:21.306Z,37.83
2017-11-08T23:01:48.879Z,35.87
2017-11-08T23:04:16.445Z,33.80
2017-11-08T23:06:45.267Z,36.80
2017-11-08T23:09:12.876Z,36.57
2017-11-08T23:11:40.761Z,35.30
2017-11-08T23:14:08.379Z,36.30
2017-11-08T23:16:35.984Z,37.17
2017-11-08T23:19:03.596Z,35.63
2017-11-08T23:21:31.160Z,36.73
2017-11-08T23:23:58.726Z,35.60
2017-11-08T23:26:26.298Z,35.97
2017-11-08T23:28:53.872Z,36.47
2017-11-08T23:31:21.445Z,38.43
2017-11-08T23:33:49.019Z,34.70
2017-11-08T23:36:16.586Z,37.97
2017-11-08T23:38:44.155Z,37.57
2017-11-08T23:41:12.530Z,37.37
2017-11-08T23:43:40.105Z,38.67
2017-11-08T23:46:07.676Z,33.67
2017-11-08T23:48:35.278Z,35.37
2017-11-08T23:51:04.747Z,35.67
2017-11-08T23:53:32.363Z,34.40
2017-11-08T23:56:01.835Z,35.57
2017-11-08T23:58:29.435Z,38.03
